Tabellarische Übersicht vom Mittwoch, den 12.06.2024

Oder anderes Datum wählen:






max 16,4°C 92,0% 9,5°C 1018,6hPa 15,0°C 23,8km/h (4Bft) 10,3km/h 346° (N) ∑0,2l/m² 102,000klx ∑33,9min
min 8,9°C 57,0% 6,2°C 1016,9hPa 5,0°C 0,0km/h (0Bft) 0,0km/h 198° (S) ∑0,2l/m² 0,000klx ∑33,9min
Ø 12,1°C 76,0% 7,7°C 1017,8hPa 10,0°C 10,9km/h (2Bft) 4,4km/h 268° (W) ∑0,2l/m² 19,000klx ∑33,9min
Zeit Temperatur Luftfeuchte Taupunkt Luftdruck Windchill Windböen Windgeschwindigkeit Windrichtung Regen Helligkeit Regenzeit
23:25 10,4°C 77,8% 6,6°C 1018,6hPa 10,4°C 3,2km/h (1Bft) 1,6km/h 339° (N) 0,0l/m² 0,000klx 0,0min
23:20 10,5°C 77,5% 6,7°C 1018,6hPa 10,5°C 3,2km/h (1Bft) 1,8km/h 330° (NW) 0,0l/m² 0,000klx 0,0min
23:15 10,7°C 76,2% 6,6°C 1018,5hPa 10,7°C 2,9km/h (1Bft) 1,5km/h 241° (SW) 0,0l/m² 0,000klx 0,0min
23:10 10,8°C 75,5% 6,7°C 1018,5hPa 10,8°C 4,3km/h (1Bft) 1,9km/h 259° (W) 0,0l/m² 0,000klx 0,0min
23:05 11,0°C 75,8% 6,9°C 1018,5hPa 11,0°C 2,2km/h (1Bft) 1,4km/h 244° (SW) 0,0l/m² 0,000klx 0,0min
23:00 11,1°C 76,1% 7,0°C 1018,5hPa 11,1°C 0,0km/h (0Bft) 0,0km/h - 0,0l/m² 0,000klx 0,0min
22:55 11,2°C 75,4% 6,9°C 1018,5hPa 11,2°C 0,0km/h (0Bft) 0,0km/h - 0,0l/m² 0,001klx 0,0min
22:50 11,3°C 74,6% 7,0°C 1018,5hPa 11,3°C 2,5km/h (1Bft) 1,2km/h 295° (NW) 0,0l/m² 0,001klx 0,0min
22:45 11,4°C 74,1% 7,0°C 1018,4hPa 11,4°C 4,3km/h (1Bft) 1,7km/h 319° (NW) 0,0l/m² 0,001klx 0,0min
22:40 11,5°C 73,8% 7,0°C 1018,4hPa 11,5°C 2,9km/h (1Bft) 1,5km/h 324° (NW) 0,0l/m² 0,002klx 0,0min
22:35 11,6°C 73,3% 7,0°C 1018,4hPa 11,6°C 3,6km/h (1Bft) 2,2km/h 319° (NW) 0,0l/m² 0,004klx 0,0min
22:30 11,7°C 73,5% 7,1°C 1018,4hPa 11,7°C 3,2km/h (1Bft) 1,4km/h 322° (NW) 0,0l/m² 0,006klx 0,0min
22:25 11,8°C 75,2% 7,5°C 1018,4hPa 11,8°C 5,0km/h (1Bft) 2,4km/h 319° (NW) 0,0l/m² 0,010klx 0,0min
22:20 11,9°C 74,0% 7,4°C 1018,4hPa 11,9°C 4,3km/h (1Bft) 2,3km/h 314° (NW) 0,0l/m² 0,017klx 0,0min
22:15 12,0°C 72,7% 7,3°C 1018,3hPa 12,0°C 6,5km/h (2Bft) 2,6km/h 289° (W) 0,0l/m² 0,030klx 0,0min
22:10 12,0°C 71,2% 6,9°C 1018,3hPa 12,0°C 9,7km/h (2Bft) 3,3km/h 305° (NW) 0,0l/m² 0,049klx 0,0min
22:05 11,9°C 74,4% 7,5°C 1018,4hPa 11,9°C 12,2km/h (3Bft) 5,5km/h 325° (NW) 0,0l/m² 0,073klx 0,0min
22:00 12,0°C 74,3% 7,5°C 1018,4hPa 12,0°C 10,4km/h (2Bft) 3,8km/h 318° (NW) 0,0l/m² 0,104klx 0,0min
21:55 12,0°C 73,2% 7,4°C 1018,3hPa 12,0°C 5,8km/h (1Bft) 2,5km/h 316° (NW) 0,0l/m² 0,138klx 0,0min
21:50 12,1°C 71,6% 7,1°C 1018,3hPa 12,1°C 4,3km/h (1Bft) 2,5km/h 311° (NW) 0,0l/m² 0,202klx 0,0min
21:45 12,2°C 72,9% 7,5°C 1018,2hPa 12,2°C 5,0km/h (1Bft) 3,0km/h 319° (NW) 0,0l/m² 0,334klx 0,0min
21:40 12,4°C 70,8% 7,2°C 1018,2hPa 12,4°C 5,8km/h (1Bft) 2,4km/h 299° (NW) 0,0l/m² 0,500klx 0,0min
21:35 12,5°C 68,8% 6,9°C 1018,1hPa 12,5°C 11,5km/h (2Bft) 4,8km/h 312° (NW) 0,0l/m² 0,660klx 0,0min
21:30 12,5°C 68,4% 6,8°C 1018,0hPa 12,5°C 10,4km/h (2Bft) 5,6km/h 311° (NW) 0,0l/m² 0,805klx 0,0min
21:25 12,5°C 68,4% 6,8°C 1018,0hPa 11,6°C 16,6km/h (3Bft) 7,8km/h 327° (NW) 0,0l/m² 0,985klx 0,0min
21:20 12,6°C 67,5% 6,7°C 1018,0hPa 12,6°C 10,8km/h (2Bft) 4,6km/h 317° (NW) 0,0l/m² 1,180klx 0,0min
21:15 12,7°C 65,6% 6,4°C 1017,9hPa 12,7°C 6,1km/h (2Bft) 3,3km/h 308° (NW) 0,0l/m² 1,405klx 0,0min
21:10 12,8°C 65,3% 6,5°C 1017,9hPa 12,8°C 11,9km/h (2Bft) 4,6km/h 327° (NW) 0,0l/m² 1,721klx 0,0min
21:05 12,9°C 66,6% 6,9°C 1017,9hPa 12,6°C 17,6km/h (3Bft) 7,0km/h 313° (NW) 0,0l/m² 2,181klx 0,0min
21:00 13,0°C 67,8% 7,2°C 1017,9hPa 13,0°C 15,8km/h (3Bft) 6,1km/h 322° (NW) 0,0l/m² 2,684klx 0,0min
20:55 13,1°C 67,5% 7,2°C 1017,8hPa 13,1°C 10,1km/h (2Bft) 4,4km/h 324° (NW) 0,0l/m² 2,899klx 0,0min
20:50 13,2°C 67,9% 7,4°C 1017,8hPa 13,2°C 12,2km/h (3Bft) 5,9km/h 317° (NW) 0,0l/m² 2,639klx 0,0min
20:45 13,2°C 68,0% 7,4°C 1017,8hPa 13,2°C 15,8km/h (3Bft) 6,4km/h 313° (NW) 0,0l/m² 2,147klx 0,0min
20:40 13,3°C 67,1% 7,3°C 1017,8hPa 13,3°C 10,8km/h (2Bft) 4,3km/h 316° (NW) 0,0l/m² 1,934klx 0,0min
20:35 13,3°C 65,7% 7,0°C 1017,8hPa 13,3°C 18,0km/h (3Bft) 5,6km/h 307° (NW) 0,0l/m² 2,101klx 0,0min
20:30 13,3°C 65,3% 6,9°C 1017,7hPa 13,3°C 14,4km/h (3Bft) 5,3km/h 304° (NW) 0,0l/m² 2,490klx 0,0min
20:25 13,3°C 65,5% 7,0°C 1017,7hPa 13,3°C 10,4km/h (2Bft) 4,6km/h 306° (NW) 0,0l/m² 2,792klx 0,0min
20:20 13,3°C 64,8% 6,8°C 1017,7hPa 13,3°C 6,5km/h (2Bft) 3,0km/h 305° (NW) 0,0l/m² 3,313klx 0,0min
20:15 13,3°C 65,8% 7,0°C 1017,7hPa 13,3°C 15,1km/h (3Bft) 5,8km/h 327° (NW) 0,0l/m² 3,577klx 0,0min
20:10 13,3°C 66,1% 7,1°C 1017,7hPa 13,3°C 13,0km/h (3Bft) 4,5km/h 313° (NW) 0,0l/m² 2,602klx 0,0min
20:05 13,4°C 64,9% 6,9°C 1017,6hPa 13,4°C 16,2km/h (3Bft) 5,4km/h 324° (NW) 0,0l/m² 1,891klx 0,0min
20:00 13,6°C 65,1% 7,1°C 1017,6hPa 13,5°C 14,8km/h (3Bft) 6,5km/h 321° (NW) 0,0l/m² 1,951klx 0,0min
19:55 13,8°C 65,4% 7,4°C 1017,6hPa 12,1°C 22,7km/h (4Bft) 9,4km/h 322° (NW) 0,0l/m² 2,092klx 0,0min
19:50 13,9°C 65,2% 7,5°C 1017,6hPa 13,9°C 16,9km/h (3Bft) 6,4km/h 334° (NW) 0,0l/m² 2,080klx 0,0min
19:45 14,0°C 64,1% 7,3°C 1017,5hPa 14,0°C 13,0km/h (3Bft) 5,4km/h 327° (NW) 0,0l/m² 4,316klx 0,0min
19:40 14,2°C 62,9% 7,2°C 1017,5hPa 14,2°C 9,0km/h (2Bft) 4,6km/h 310° (NW) 0,0l/m² 6,841klx 0,0min
19:35 14,3°C 63,0% 7,4°C 1017,5hPa 14,3°C 9,7km/h (2Bft) 4,4km/h 312° (NW) 0,0l/m² 9,043klx 0,0min
19:30 14,5°C 63,3% 7,6°C 1017,5hPa 14,5°C 11,9km/h (2Bft) 5,7km/h 318° (NW) 0,0l/m² 11,475klx 0,0min
19:25 14,6°C 64,1% 7,9°C 1017,5hPa 14,6°C 15,8km/h (3Bft) 6,1km/h 329° (NW) 0,0l/m² 13,227klx 0,0min
19:20 14,6°C 63,4% 7,7°C 1017,5hPa 14,6°C 8,3km/h (2Bft) 4,3km/h 312° (NW) 0,0l/m² 15,183klx 0,0min
19:15 14,4°C 63,7% 7,6°C 1017,5hPa 14,4°C 15,1km/h (3Bft) 3,9km/h 307° (NW) 0,0l/m² 16,172klx 0,0min
19:10 14,1°C 63,9% 7,4°C 1017,5hPa 14,1°C 13,7km/h (3Bft) 5,3km/h 332° (NW) 0,0l/m² 14,431klx 0,0min
19:05 14,1°C 64,6% 7,5°C 1017,5hPa 14,0°C 15,5km/h (3Bft) 6,5km/h 346° (N) 0,0l/m² 8,013klx 0,0min
19:00 14,1°C 63,3% 7,2°C 1017,4hPa 14,1°C 8,3km/h (2Bft) 4,5km/h 309° (NW) 0,0l/m² 5,378klx 0,0min
18:55 14,2°C 62,8% 7,2°C 1017,4hPa 14,2°C 9,0km/h (2Bft) 4,8km/h 326° (NW) 0,0l/m² 5,883klx 0,0min
18:50 14,3°C 62,9% 7,3°C 1017,4hPa 13,6°C 15,5km/h (3Bft) 7,6km/h 326° (NW) 0,0l/m² 8,131klx 0,0min
18:45 14,4°C 62,2% 7,2°C 1017,4hPa 14,4°C 12,2km/h (3Bft) 5,7km/h 315° (NW) 0,0l/m² 12,611klx 0,0min
18:40 14,4°C 60,0% 6,7°C 1017,4hPa 14,4°C 15,5km/h (3Bft) 5,6km/h 321° (NW) 0,0l/m² 13,877klx 0,0min
18:35 14,7°C 58,2% 6,5°C 1017,4hPa 14,7°C 11,9km/h (2Bft) 4,5km/h 275° (W) 0,0l/m² 14,145klx 0,0min
18:30 15,1°C 57,5% 6,8°C 1017,3hPa 15,1°C 11,2km/h (2Bft) 4,3km/h 268° (W) 0,0l/m² 20,766klx 0,0min
18:25 15,4°C 57,4% 7,0°C 1017,4hPa 15,4°C 15,1km/h (3Bft) 5,9km/h 260° (W) 0,0l/m² 31,174klx 0,0min
18:20 15,3°C 61,1% 7,8°C 1017,4hPa 15,3°C 11,9km/h (2Bft) 4,9km/h 327° (NW) 0,0l/m² 32,407klx 0,0min
18:15 14,8°C 63,9% 8,0°C 1017,4hPa 14,8°C 10,8km/h (2Bft) 3,5km/h 287° (W) 0,0l/m² 35,075klx 0,0min
18:10 14,5°C 65,2% 8,0°C 1017,4hPa 14,5°C 11,2km/h (2Bft) 4,1km/h 294° (NW) 0,0l/m² 21,551klx 0,0min
18:05 14,3°C 65,4% 7,9°C 1017,5hPa 14,3°C 5,0km/h (1Bft) 2,7km/h 275° (W) 0,0l/m² 14,551klx 0,0min
18:00 14,3°C 65,7% 8,0°C 1017,5hPa 14,3°C 6,5km/h (2Bft) 3,1km/h 270° (W) 0,0l/m² 11,138klx 0,0min
17:55 14,3°C 65,7% 8,0°C 1017,5hPa 14,3°C 11,2km/h (2Bft) 4,6km/h 311° (NW) 0,0l/m² 11,918klx 0,0min
17:50 14,5°C 64,8% 7,9°C 1017,6hPa 13,1°C 17,3km/h (3Bft) 8,8km/h 324° (NW) 0,0l/m² 12,592klx 0,0min
17:45 14,5°C 63,8% 7,7°C 1017,6hPa 14,5°C 10,4km/h (2Bft) 5,1km/h 310° (NW) 0,0l/m² 16,440klx 0,0min
17:40 14,5°C 63,0% 7,6°C 1017,6hPa 14,5°C 14,8km/h (3Bft) 5,0km/h 314° (NW) 0,0l/m² 16,734klx 0,0min
17:35 14,5°C 63,9% 7,7°C 1017,7hPa 14,5°C 11,2km/h (2Bft) 4,5km/h 311° (NW) 0,0l/m² 17,878klx 0,0min
17:30 14,4°C 65,4% 8,0°C 1017,7hPa 14,4°C 12,2km/h (3Bft) 4,7km/h 308° (NW) 0,0l/m² 18,618klx 0,0min
17:25 14,4°C 64,2% 7,7°C 1017,7hPa 14,4°C 14,4km/h (3Bft) 6,4km/h 322° (NW) 0,0l/m² 14,096klx 0,0min
17:20 14,6°C 63,5% 7,7°C 1017,7hPa 14,4°C 15,5km/h (3Bft) 6,8km/h 308° (NW) 0,0l/m² 12,749klx 0,0min
17:15 14,7°C 63,2% 7,8°C 1017,7hPa 14,7°C 12,6km/h (3Bft) 6,1km/h 315° (NW) 0,0l/m² 15,260klx 0,0min
17:10 14,7°C 62,8% 7,6°C 1017,7hPa 14,2°C 19,8km/h (3Bft) 7,2km/h 310° (NW) 0,0l/m² 18,815klx 0,0min
17:05 14,7°C 60,4% 7,1°C 1017,7hPa 14,7°C 13,3km/h (3Bft) 4,9km/h 274° (W) 0,0l/m² 19,402klx 0,0min
17:00 14,8°C 60,0% 7,1°C 1017,7hPa 14,8°C 11,9km/h (2Bft) 5,1km/h 295° (NW) 0,0l/m² 24,180klx 0,0min
16:55 14,9°C 58,1% 6,8°C 1017,8hPa 14,9°C 9,4km/h (2Bft) 4,7km/h 272° (W) 0,0l/m² 30,804klx 0,0min
16:50 14,9°C 57,9% 6,7°C 1017,8hPa 14,9°C 19,8km/h (3Bft) 5,8km/h 312° (NW) 0,0l/m² 33,705klx 0,0min
16:45 14,8°C 59,9% 7,0°C 1017,9hPa 14,0°C 20,9km/h (4Bft) 7,8km/h 311° (NW) 0,0l/m² 44,030klx 0,0min
16:40 14,3°C 59,4% 6,5°C 1017,9hPa 14,3°C 11,9km/h (2Bft) 4,6km/h 280° (W) 0,0l/m² 35,387klx 0,0min
16:35 14,1°C 59,2% 6,2°C 1017,9hPa 14,1°C 12,2km/h (3Bft) 5,3km/h 268° (W) 0,0l/m² 26,105klx 0,0min
16:30 13,9°C 61,3% 6,6°C 1017,9hPa 13,9°C 13,7km/h (3Bft) 4,6km/h 270° (W) 0,0l/m² 22,435klx 0,0min
16:25 13,8°C 63,1% 6,9°C 1018,0hPa 13,8°C 15,1km/h (3Bft) 4,6km/h 285° (W) 0,0l/m² 18,387klx 0,0min
16:20 13,6°C 62,6% 6,6°C 1018,0hPa 13,6°C 16,6km/h (3Bft) 5,8km/h 306° (NW) 0,0l/m² 15,998klx 0,0min
16:15 13,6°C 64,3% 7,0°C 1017,9hPa 13,6°C 11,9km/h (2Bft) 4,8km/h 299° (NW) 0,0l/m² 13,795klx 0,0min
16:10 13,7°C 64,9% 7,2°C 1017,9hPa 13,7°C 13,3km/h (3Bft) 4,4km/h 274° (W) 0,0l/m² 11,269klx 0,0min
16:05 13,7°C 64,9% 7,2°C 1017,9hPa 13,7°C 8,6km/h (2Bft) 3,2km/h 300° (NW) 0,0l/m² 10,761klx 0,0min
16:00 13,6°C 65,8% 7,3°C 1017,9hPa 13,6°C 13,3km/h (3Bft) 3,7km/h 301° (NW) 0,0l/m² 11,650klx 0,0min
15:55 13,5°C 65,3% 7,1°C 1017,9hPa 13,5°C 12,2km/h (3Bft) 4,3km/h 287° (W) 0,0l/m² 11,803klx 0,0min
15:50 13,5°C 65,5% 7,1°C 1018,0hPa 13,5°C 16,9km/h (3Bft) 4,6km/h 296° (NW) 0,0l/m² 9,223klx 0,0min
15:45 13,5°C 65,7% 7,2°C 1018,0hPa 13,4°C 16,6km/h (3Bft) 6,6km/h 278° (W) 0,0l/m² 6,144klx 0,2min
15:40 13,7°C 65,8% 7,4°C 1018,0hPa 13,2°C 19,1km/h (3Bft) 7,3km/h 306° (NW) 0,0l/m² 3,952klx 0,0min
15:35 14,0°C 64,0% 7,3°C 1017,9hPa 13,0°C 16,6km/h (3Bft) 8,0km/h 238° (SW) 0,0l/m² 3,217klx 0,7min
15:30 14,4°C 62,1% 7,2°C 1017,9hPa 14,4°C 16,9km/h (3Bft) 5,9km/h 263° (W) 0,0l/m² 3,926klx 0,7min
15:25 14,9°C 61,3% 7,5°C 1017,8hPa 14,9°C 14,8km/h (3Bft) 5,5km/h 265° (W) 0,0l/m² 9,247klx 0,0min
15:20 15,1°C 62,1% 7,9°C 1017,8hPa 15,1°C 11,5km/h (2Bft) 4,8km/h 238° (SW) 0,0l/m² 25,529klx 0,0min
15:15 15,1°C 60,0% 7,4°C 1017,8hPa 13,9°C 19,4km/h (3Bft) 8,5km/h 298° (NW) 0,0l/m² 32,689klx 0,0min
15:10 15,2°C 59,4% 7,4°C 1017,9hPa 15,2°C 14,4km/h (3Bft) 5,9km/h 298° (NW) 0,0l/m² 35,379klx 0,0min
15:05 15,3°C 59,1% 7,3°C 1017,9hPa 14,7°C 19,1km/h (3Bft) 7,5km/h 294° (NW) 0,0l/m² 36,980klx 0,0min
15:00 15,2°C 60,9% 7,7°C 1017,9hPa 14,4°C 19,8km/h (3Bft) 7,9km/h 298° (NW) 0,0l/m² 34,770klx 0,0min
14:55 15,2°C 59,3% 7,3°C 1017,8hPa 15,2°C 10,8km/h (2Bft) 4,8km/h 294° (NW) 0,0l/m² 30,786klx 0,0min
14:50 15,5°C 59,6% 7,7°C 1017,8hPa 13,6°C 23,8km/h (4Bft) 10,3km/h 305° (NW) 0,0l/m² 33,912klx 0,0min
14:45 14,9°C 64,0% 8,1°C 1017,8hPa 14,7°C 19,1km/h (3Bft) 6,8km/h 328° (NW) 0,0l/m² 91,385klx 0,0min
14:40 14,5°C 64,3% 7,8°C 1017,9hPa 13,9°C 19,4km/h (3Bft) 7,4km/h 320° (NW) 0,0l/m² 24,129klx 0,0min
14:35 14,7°C 60,8% 7,2°C 1017,8hPa 13,3°C 23,8km/h (4Bft) 9,1km/h 320° (NW) 0,0l/m² 12,032klx 0,0min
14:30 15,1°C 57,4% 6,8°C 1017,8hPa 15,1°C 20,2km/h (4Bft) 6,3km/h 301° (NW) 0,0l/m² 10,885klx 0,0min
14:25 15,7°C 57,3% 7,3°C 1017,7hPa 15,7°C 13,0km/h (3Bft) 5,5km/h 271° (W) 0,0l/m² 15,195klx 0,0min
14:20 16,3°C 57,7% 7,9°C 1017,7hPa 16,0°C 18,0km/h (3Bft) 6,9km/h 296° (NW) 0,0l/m² 49,757klx 0,0min
14:15 16,4°C 58,6% 8,3°C 1017,7hPa 16,4°C 10,4km/h (2Bft) 4,9km/h 244° (SW) 0,0l/m² 54,920klx 0,0min
14:10 16,2°C 60,0% 8,5°C 1017,7hPa 15,6°C 23,0km/h (4Bft) 7,6km/h 230° (SW) 0,0l/m² 90,646klx 0,0min
14:05 16,1°C 57,6% 7,7°C 1017,8hPa 16,1°C 15,1km/h (3Bft) 6,0km/h 253° (W) 0,0l/m² 100,686klx 0,0min
14:00 16,0°C 57,5% 7,6°C 1017,8hPa 15,0°C 19,8km/h (3Bft) 8,3km/h 305° (NW) 0,0l/m² 98,500klx 0,0min
13:55 15,4°C 58,8% 7,4°C 1017,8hPa 15,4°C 16,2km/h (3Bft) 6,1km/h 257° (W) 0,0l/m² 102,076klx 0,0min
13:50 14,9°C 58,4% 6,8°C 1017,9hPa 14,9°C 13,0km/h (3Bft) 5,1km/h 283° (W) 0,0l/m² 70,833klx 0,0min
13:45 15,4°C 57,9% 7,1°C 1017,9hPa 15,4°C 19,8km/h (3Bft) 6,3km/h 288° (W) 0,0l/m² 31,001klx 0,0min
13:40 15,4°C 59,8% 7,6°C 1017,9hPa 15,4°C 14,4km/h (3Bft) 4,5km/h 281° (W) 0,0l/m² 62,517klx 0,0min
13:35 15,4°C 59,4% 7,5°C 1017,9hPa 15,4°C 14,0km/h (3Bft) 6,4km/h 291° (W) 0,0l/m² 45,416klx 0,0min
13:30 15,1°C 62,2% 7,9°C 1017,9hPa 15,1°C 9,0km/h (2Bft) 3,9km/h 242° (SW) 0,0l/m² 99,116klx 0,0min
13:25 14,5°C 61,6% 7,2°C 1018,0hPa 14,5°C 15,5km/h (3Bft) 5,8km/h 263° (W) 0,0l/m² 86,349klx 0,0min
13:20 14,4°C 62,4% 7,3°C 1018,0hPa 14,4°C 15,8km/h (3Bft) 5,5km/h 302° (NW) 0,0l/m² 37,299klx 0,0min
13:15 14,4°C 64,5% 7,8°C 1018,0hPa 14,4°C 19,4km/h (3Bft) 6,1km/h 304° (NW) 0,0l/m² 35,443klx 0,0min
13:10 14,3°C 65,6% 7,9°C 1018,0hPa 14,3°C 8,3km/h (2Bft) 3,6km/h 269° (W) 0,0l/m² 33,508klx 0,0min
13:05 14,0°C 66,2% 7,8°C 1018,0hPa 14,0°C 10,1km/h (2Bft) 4,3km/h 246° (SW) 0,0l/m² 35,563klx 0,0min
13:00 14,0°C 65,3% 7,6°C 1018,1hPa 14,0°C 15,5km/h (3Bft) 5,2km/h 271° (W) 0,0l/m² 26,307klx 0,0min
12:55 14,2°C 64,5% 7,6°C 1018,1hPa 14,2°C 12,2km/h (3Bft) 6,5km/h 263° (W) 0,0l/m² 26,478klx 0,0min
12:50 14,5°C 65,8% 8,2°C 1018,0hPa 14,5°C 15,1km/h (3Bft) 6,0km/h 294° (NW) 0,0l/m² 35,728klx 0,0min
12:45 14,5°C 67,6% 8,5°C 1017,9hPa 14,5°C 8,3km/h (2Bft) 3,5km/h 311° (NW) 0,0l/m² 41,111klx 0,0min
12:40 14,3°C 66,9% 8,2°C 1018,0hPa 14,3°C 15,5km/h (3Bft) 5,5km/h 309° (NW) 0,0l/m² 58,931klx 0,0min
12:35 14,1°C 67,3% 8,2°C 1018,1hPa 14,1°C 14,0km/h (3Bft) 5,5km/h 296° (NW) 0,0l/m² 32,655klx 0,0min
12:30 14,6°C 66,2% 8,4°C 1018,1hPa 14,1°C 20,5km/h (4Bft) 7,3km/h 312° (NW) 0,0l/m² 36,605klx 0,0min
12:25 15,2°C 67,4% 9,1°C 1018,1hPa 15,2°C 16,2km/h (3Bft) 5,6km/h 219° (SW) 0,0l/m² 39,062klx 0,0min
12:20 14,4°C 70,8% 9,2°C 1018,1hPa 14,4°C 14,8km/h (3Bft) 6,2km/h 231° (SW) 0,0l/m² 81,987klx 0,0min
12:15 13,9°C 71,8% 8,8°C 1018,2hPa 13,9°C 14,4km/h (3Bft) 5,1km/h 282° (W) 0,0l/m² 51,089klx 0,0min
12:10 13,7°C 72,3% 8,8°C 1018,3hPa 13,7°C 7,6km/h (2Bft) 3,3km/h 284° (W) 0,0l/m² 57,147klx 0,0min
12:05 12,8°C 74,6% 8,4°C 1018,3hPa 12,8°C 8,3km/h (2Bft) 4,5km/h 279° (W) 0,0l/m² 63,517klx 0,0min
12:00 12,3°C 77,0% 8,4°C 1018,3hPa 12,3°C 7,9km/h (2Bft) 3,4km/h 276° (W) 0,0l/m² 35,505klx 0,0min
11:55 12,2°C 75,8% 8,0°C 1018,4hPa 12,2°C 12,6km/h (3Bft) 3,6km/h 285° (W) 0,0l/m² 30,474klx 0,0min
11:50 12,5°C 73,5% 7,8°C 1018,4hPa 12,5°C 9,0km/h (2Bft) 4,2km/h 277° (W) 0,0l/m² 23,993klx 0,0min
11:45 12,8°C 72,1% 7,9°C 1018,5hPa 12,8°C 11,5km/h (2Bft) 5,0km/h 276° (W) 0,0l/m² 18,536klx 0,6min
11:40 13,3°C 72,5% 8,4°C 1018,4hPa 13,3°C 15,8km/h (3Bft) 6,0km/h 234° (SW) 0,0l/m² 21,013klx 0,0min
11:35 13,4°C 71,8% 8,4°C 1018,4hPa 13,4°C 10,8km/h (2Bft) 4,7km/h 277° (W) 0,0l/m² 34,792klx 0,0min
11:30 13,6°C 74,4% 9,1°C 1018,4hPa 13,6°C 11,9km/h (2Bft) 4,7km/h 309° (NW) 0,0l/m² 37,341klx 0,0min
11:25 13,1°C 74,9% 8,7°C 1018,5hPa 13,1°C 8,3km/h (2Bft) 4,4km/h 309° (NW) 0,0l/m² 72,370klx 0,0min
11:20 12,3°C 79,2% 8,8°C 1018,5hPa 12,3°C 8,3km/h (2Bft) 3,7km/h 271° (W) 0,0l/m² 47,980klx 0,0min
11:15 12,0°C 80,3% 8,7°C 1018,6hPa 12,0°C 8,3km/h (2Bft) 4,0km/h 279° (W) 0,0l/m² 34,265klx 0,0min
11:10 11,8°C 82,5% 8,9°C 1018,6hPa 11,8°C 10,1km/h (2Bft) 3,8km/h 257° (W) 0,0l/m² 26,103klx 2,1min
11:05 11,6°C 81,1% 8,5°C 1018,6hPa 11,6°C 11,2km/h (2Bft) 4,0km/h 297° (NW) 0,0l/m² 12,346klx 0,0min
11:00 11,7°C 82,5% 8,8°C 1018,5hPa 11,7°C 4,7km/h (1Bft) 2,4km/h 283° (W) 0,0l/m² 11,826klx 0,3min
10:55 11,6°C 82,0% 8,6°C 1018,5hPa 11,6°C 6,1km/h (2Bft) 2,7km/h 278° (W) 0,0l/m² 13,635klx 0,0min
10:50 11,6°C 81,8% 8,6°C 1018,4hPa 11,6°C 5,0km/h (1Bft) 2,3km/h 262° (W) 0,0l/m² 13,532klx 0,0min
10:45 11,6°C 84,4% 9,0°C 1018,4hPa 11,6°C 5,0km/h (1Bft) 2,6km/h 306° (NW) 0,0l/m² 19,859klx 0,0min
10:40 11,3°C 85,8% 9,0°C 1018,4hPa 11,3°C 5,8km/h (1Bft) 2,8km/h 315° (NW) 0,0l/m² 20,529klx 0,0min
10:35 11,1°C 84,4% 8,6°C 1018,4hPa 11,1°C 5,8km/h (1Bft) 2,7km/h 314° (NW) 0,0l/m² 10,850klx 3,9min
10:30 11,3°C 82,1% 8,3°C 1018,4hPa 11,3°C 11,5km/h (2Bft) 4,7km/h 311° (NW) 0,1l/m² 7,012klx 5,0min
10:25 11,6°C 78,5% 8,0°C 1018,5hPa 11,6°C 10,1km/h (2Bft) 3,7km/h 299° (NW) 0,0l/m² 5,021klx 4,3min
10:20 12,1°C 74,3% 7,7°C 1018,4hPa 12,1°C 16,9km/h (3Bft) 5,3km/h 309° (NW) 0,0l/m² 6,426klx 1,6min
10:15 12,4°C 72,9% 7,7°C 1018,4hPa 12,4°C 11,2km/h (2Bft) 4,3km/h 281° (W) 0,0l/m² 7,620klx 0,0min
10:10 12,6°C 73,1% 7,9°C 1018,3hPa 12,6°C 7,6km/h (2Bft) 3,7km/h 291° (W) 0,0l/m² 9,582klx 0,0min
10:05 12,8°C 72,3% 7,9°C 1018,3hPa 12,8°C 11,2km/h (2Bft) 3,6km/h 305° (NW) 0,0l/m² 15,237klx 0,0min
10:00 12,7°C 72,0% 7,8°C 1018,3hPa 12,7°C 8,3km/h (2Bft) 3,7km/h 281° (W) 0,0l/m² 23,744klx 0,0min
09:55 12,5°C 73,2% 7,8°C 1018,3hPa 12,5°C 12,6km/h (3Bft) 4,8km/h 279° (W) 0,0l/m² 25,465klx 0,0min
09:50 12,4°C 73,8% 7,8°C 1018,3hPa 12,4°C 16,2km/h (3Bft) 5,4km/h 255° (W) 0,0l/m² 18,769klx 0,0min
09:45 12,9°C 72,1% 8,0°C 1018,3hPa 12,9°C 10,8km/h (2Bft) 4,4km/h 277° (W) 0,0l/m² 8,986klx 0,0min
09:40 14,0°C 69,4% 8,5°C 1018,2hPa 14,0°C 11,5km/h (2Bft) 4,2km/h 278° (W) 0,0l/m² 10,700klx 0,0min
09:35 14,7°C 69,6% 9,2°C 1018,2hPa 14,7°C 11,5km/h (2Bft) 4,7km/h 242° (SW) 0,0l/m² 41,656klx 0,0min
09:30 14,5°C 70,6% 9,2°C 1018,3hPa 14,5°C 15,5km/h (3Bft) 4,9km/h 249° (W) 0,0l/m² 53,594klx 0,0min
09:25 13,6°C 76,3% 9,5°C 1018,4hPa 13,6°C 11,2km/h (2Bft) 4,8km/h 239° (SW) 0,0l/m² 47,229klx 0,0min
09:20 12,0°C 80,9% 8,8°C 1018,3hPa 12,0°C 7,2km/h (2Bft) 3,1km/h 260° (W) 0,0l/m² 34,776klx 0,0min
09:15 11,8°C 79,8% 8,4°C 1018,4hPa 11,8°C 7,2km/h (2Bft) 3,2km/h 278° (W) 0,0l/m² 11,218klx 0,0min
09:10 12,0°C 78,1% 8,3°C 1018,3hPa 12,0°C 9,7km/h (2Bft) 3,5km/h 276° (W) 0,0l/m² 11,081klx 0,0min
09:05 12,6°C 77,8% 8,8°C 1018,3hPa 12,6°C 10,4km/h (2Bft) 3,7km/h 285° (W) 0,0l/m² 13,535klx 0,0min
09:00 13,1°C 77,3% 9,3°C 1018,4hPa 13,1°C 13,3km/h (3Bft) 4,7km/h 251° (W) 0,0l/m² 23,457klx 0,0min
08:55 12,8°C 78,6% 9,2°C 1018,4hPa 12,8°C 9,7km/h (2Bft) 3,5km/h 288° (W) 0,0l/m² 39,518klx 0,0min
08:50 12,6°C 79,6% 9,1°C 1018,4hPa 12,6°C 8,3km/h (2Bft) 2,4km/h 287° (W) 0,0l/m² 21,819klx 0,0min
08:45 12,1°C 81,3% 9,0°C 1018,4hPa 12,1°C 5,8km/h (1Bft) 2,6km/h 289° (W) 0,0l/m² 31,850klx 0,0min
08:40 11,3°C 83,8% 8,7°C 1018,4hPa 11,3°C 9,0km/h (2Bft) 4,4km/h 273° (W) 0,0l/m² 22,956klx 0,0min
08:35 11,4°C 84,5% 8,8°C 1018,3hPa 11,4°C 9,0km/h (2Bft) 4,3km/h 235° (SW) 0,0l/m² 12,272klx 0,0min
08:30 11,6°C 83,7% 8,9°C 1018,3hPa 11,6°C 7,9km/h (2Bft) 3,9km/h 237° (SW) 0,0l/m² 11,311klx 0,0min
08:25 11,5°C 85,3% 9,1°C 1018,3hPa 11,5°C 9,0km/h (2Bft) 4,1km/h 238° (SW) 0,0l/m² 22,094klx 0,0min
08:20 11,5°C 83,4% 8,8°C 1018,2hPa 11,5°C 13,7km/h (3Bft) 5,2km/h 220° (SW) 0,0l/m² 11,006klx 0,0min
08:15 11,7°C 84,8% 9,2°C 1018,1hPa 11,7°C 13,0km/h (3Bft) 5,7km/h 201° (S) 0,0l/m² 18,488klx 0,0min
08:10 11,1°C 86,7% 9,0°C 1018,1hPa 11,1°C 6,5km/h (2Bft) 2,7km/h 298° (NW) 0,0l/m² 21,011klx 0,0min
08:05 10,9°C 87,9% 9,0°C 1018,0hPa 10,9°C 7,9km/h (2Bft) 3,7km/h 230° (SW) 0,0l/m² 11,583klx 0,0min
08:00 10,6°C 88,7% 8,8°C 1018,0hPa 10,6°C 7,6km/h (2Bft) 2,8km/h 237° (SW) 0,0l/m² 17,011klx 0,0min
07:55 10,4°C 89,0% 8,7°C 1018,0hPa 10,4°C 9,0km/h (2Bft) 4,4km/h 279° (W) 0,0l/m² 14,665klx 0,0min
07:50 10,4°C 89,7% 8,8°C 1018,0hPa 10,4°C 9,0km/h (2Bft) 3,7km/h 255° (W) 0,0l/m² 10,923klx 0,0min
07:45 10,2°C 90,5% 8,7°C 1018,0hPa 10,2°C 11,5km/h (2Bft) 3,7km/h 224° (SW) 0,0l/m² 16,846klx 0,0min
07:40 10,1°C 90,7% 8,7°C 1018,0hPa 10,1°C 9,7km/h (2Bft) 3,7km/h 220° (SW) 0,0l/m² 11,304klx 0,0min
07:35 10,1°C 91,3% 8,7°C 1018,0hPa 10,1°C 7,6km/h (2Bft) 4,0km/h 228° (SW) 0,0l/m² 10,559klx 0,0min
07:30 9,9°C 91,7% 8,6°C 1018,1hPa 9,9°C 9,4km/h (2Bft) 3,9km/h 222° (SW) 0,0l/m² 9,951klx 0,0min
07:25 9,8°C 91,5% 8,4°C 1018,1hPa 9,8°C 11,9km/h (2Bft) 3,9km/h 250° (W) 0,0l/m² 6,781klx 0,0min
07:20 9,7°C 91,5% 8,4°C 1018,1hPa 9,7°C 8,6km/h (2Bft) 3,5km/h 285° (W) 0,0l/m² 5,413klx 0,0min
07:15 9,8°C 91,6% 8,5°C 1018,1hPa 9,8°C 7,6km/h (2Bft) 2,8km/h 273° (W) 0,0l/m² 5,698klx 0,0min
07:10 9,7°C 91,8% 8,5°C 1018,0hPa 9,7°C 7,2km/h (2Bft) 3,5km/h 244° (SW) 0,0l/m² 4,582klx 0,0min
07:05 9,7°C 91,8% 8,4°C 1018,0hPa 9,7°C 13,3km/h (3Bft) 5,9km/h 219° (SW) 0,0l/m² 5,421klx 0,0min
07:00 9,7°C 91,4% 8,3°C 1017,9hPa 9,7°C 9,7km/h (2Bft) 3,6km/h 226° (SW) 0,0l/m² 5,623klx 1,0min
06:55 9,7°C 90,8% 8,3°C 1017,9hPa 9,7°C 10,4km/h (2Bft) 5,0km/h 214° (SW) 0,0l/m² 4,798klx 5,0min
06:50 9,8°C 90,4% 8,3°C 1017,8hPa 9,8°C 12,6km/h (3Bft) 5,7km/h 208° (SW) 0,0l/m² 3,404klx 5,0min
06:45 9,9°C 89,4% 8,2°C 1017,7hPa 9,9°C 10,4km/h (2Bft) 5,9km/h 199° (S) 0,0l/m² 3,610klx 3,4min
06:40 9,9°C 89,2% 8,2°C 1017,7hPa 9,9°C 9,7km/h (2Bft) 4,6km/h 210° (SW) 0,0l/m² 4,493klx 0,0min
06:35 9,9°C 89,3% 8,2°C 1017,8hPa 9,9°C 8,3km/h (2Bft) 3,7km/h 213° (SW) 0,0l/m² 4,269klx 0,0min
06:30 9,9°C 89,0% 8,2°C 1017,8hPa 9,9°C 7,9km/h (2Bft) 3,4km/h 239° (SW) 0,0l/m² 2,880klx 0,3min
06:25 9,9°C 89,4% 8,2°C 1017,7hPa 9,9°C 10,8km/h (2Bft) 4,8km/h 219° (SW) 0,0l/m² 2,905klx 0,0min
06:20 9,8°C 89,8% 8,2°C 1017,7hPa 9,8°C 9,4km/h (2Bft) 3,8km/h 226° (SW) 0,0l/m² 3,426klx 0,0min
06:15 9,6°C 89,6% 8,0°C 1017,6hPa 9,6°C 10,4km/h (2Bft) 5,7km/h 212° (SW) 0,0l/m² 3,131klx 0,0min
06:10 9,6°C 89,5% 7,9°C 1017,6hPa 9,6°C 8,3km/h (2Bft) 3,2km/h 233° (SW) 0,0l/m² 2,371klx 0,0min
06:05 9,6°C 89,7% 7,9°C 1017,7hPa 9,6°C 7,9km/h (2Bft) 3,4km/h 247° (SW) 0,0l/m² 1,838klx 0,0min
06:00 9,5°C 89,7% 7,9°C 1017,7hPa 9,5°C 9,7km/h (2Bft) 4,1km/h 231° (SW) 0,0l/m² 1,666klx 0,0min
05:55 9,5°C 89,6% 7,8°C 1017,6hPa 9,5°C 10,4km/h (2Bft) 4,0km/h 230° (SW) 0,0l/m² 1,713klx 0,0min
05:50 9,5°C 89,9% 7,9°C 1017,6hPa 9,5°C 8,6km/h (2Bft) 4,1km/h 212° (SW) 0,0l/m² 1,596klx 0,0min
05:45 9,5°C 90,3% 8,0°C 1017,5hPa 9,5°C 7,2km/h (2Bft) 3,6km/h 223° (SW) 0,0l/m² 1,345klx 0,0min
05:40 9,4°C 89,9% 7,8°C 1017,5hPa 9,4°C 10,1km/h (2Bft) 3,9km/h 212° (SW) 0,0l/m² 1,073klx 0,0min
05:35 9,3°C 89,7% 7,7°C 1017,5hPa 9,3°C 11,2km/h (2Bft) 5,9km/h 207° (SW) 0,0l/m² 0,841klx 0,0min
05:30 9,4°C 89,6% 7,7°C 1017,4hPa 9,4°C 12,2km/h (3Bft) 5,1km/h 201° (S) 0,0l/m² 0,636klx 0,0min
05:25 9,4°C 89,5% 7,8°C 1017,4hPa 9,4°C 10,1km/h (2Bft) 4,1km/h 212° (SW) 0,0l/m² 0,490klx 0,0min
05:20 9,5°C 89,1% 7,8°C 1017,3hPa 9,5°C 11,5km/h (2Bft) 5,1km/h 205° (SW) 0,0l/m² 0,369klx 0,0min
05:15 9,5°C 89,4% 7,9°C 1017,4hPa 9,5°C 11,5km/h (2Bft) 4,9km/h 213° (SW) 0,0l/m² 0,231klx 0,0min
05:10 9,5°C 89,6% 7,9°C 1017,4hPa 9,5°C 12,2km/h (3Bft) 4,9km/h 218° (SW) 0,0l/m² 0,125klx 0,0min
05:05 9,5°C 89,8% 7,9°C 1017,4hPa 9,5°C 9,7km/h (2Bft) 3,9km/h 221° (SW) 0,0l/m² 0,086klx 0,0min
05:00 9,5°C 89,7% 7,9°C 1017,4hPa 9,5°C 8,3km/h (2Bft) 3,6km/h 225° (SW) 0,0l/m² 0,050klx 0,0min
04:55 9,5°C 89,6% 7,8°C 1017,4hPa 9,5°C 11,2km/h (2Bft) 4,9km/h 213° (SW) 0,0l/m² 0,026klx 0,0min
04:50 9,5°C 89,9% 7,9°C 1017,4hPa 9,5°C 9,0km/h (2Bft) 4,5km/h 210° (SW) 0,0l/m² 0,015klx 0,0min
04:45 9,4°C 89,9% 7,8°C 1017,4hPa 9,4°C 12,2km/h (3Bft) 4,3km/h 209° (SW) 0,0l/m² 0,009klx 0,0min
04:40 9,4°C 90,1% 7,8°C 1017,4hPa 9,4°C 9,0km/h (2Bft) 3,4km/h 208° (SW) 0,0l/m² 0,006klx 0,0min
04:35 9,3°C 90,0% 7,7°C 1017,4hPa 9,3°C 8,3km/h (2Bft) 3,5km/h 228° (SW) 0,0l/m² 0,004klx 0,0min
04:30 9,3°C 90,0% 7,7°C 1017,4hPa 9,3°C 9,7km/h (2Bft) 3,6km/h 224° (SW) 0,0l/m² 0,002klx 0,0min
04:25 9,2°C 90,1% 7,7°C 1017,3hPa 9,2°C 6,8km/h (2Bft) 2,7km/h 235° (SW) 0,0l/m² 0,001klx 0,0min
04:20 9,1°C 90,4% 7,6°C 1017,3hPa 9,1°C 8,6km/h (2Bft) 3,5km/h 245° (SW) 0,0l/m² 0,001klx 0,0min
04:15 9,0°C 90,1% 7,5°C 1017,3hPa 9,0°C 7,2km/h (2Bft) 3,2km/h 270° (W) 0,0l/m² 0,001klx 0,0min
04:10 9,0°C 89,9% 7,5°C 1017,3hPa 9,0°C 9,7km/h (2Bft) 3,6km/h 258° (W) 0,0l/m² 0,000klx 0,0min
04:05 9,1°C 89,6% 7,5°C 1017,3hPa 9,1°C 5,8km/h (1Bft) 2,4km/h 242° (SW) 0,0l/m² 0,000klx 0,0min
04:00 9,3°C 89,0% 7,5°C 1017,3hPa 9,3°C 7,9km/h (2Bft) 3,5km/h 251° (W) 0,0l/m² 0,000klx 0,0min
03:55 9,4°C 89,0% 7,7°C 1017,3hPa 9,4°C 9,0km/h (2Bft) 4,0km/h 245° (SW) 0,0l/m² 0,000klx 0,0min
03:50 9,5°C 88,7% 7,7°C 1017,3hPa 9,5°C 8,3km/h (2Bft) 3,8km/h 231° (SW) 0,0l/m² 0,000klx 0,0min
03:45 9,5°C 88,6% 7,7°C 1017,3hPa 9,5°C 7,9km/h (2Bft) 4,0km/h 241° (SW) 0,0l/m² 0,000klx 0,0min
03:40 9,5°C 88,0% 7,6°C 1017,4hPa 9,5°C 7,9km/h (2Bft) 3,8km/h 235° (SW) 0,0l/m² 0,000klx 0,0min
03:35 9,6°C 87,7% 7,6°C 1017,3hPa 9,6°C 9,4km/h (2Bft) 3,3km/h 235° (SW) 0,0l/m² 0,000klx 0,0min
03:30 9,6°C 87,9% 7,7°C 1017,4hPa 9,6°C 11,2km/h (2Bft) 3,9km/h 241° (SW) 0,0l/m² 0,000klx 0,0min
03:25 9,6°C 87,6% 7,7°C 1017,4hPa 9,6°C 10,4km/h (2Bft) 3,3km/h 245° (SW) 0,0l/m² 0,000klx 0,0min
03:20 9,7°C 87,3% 7,7°C 1017,3hPa 9,7°C 6,8km/h (2Bft) 3,7km/h 240° (SW) 0,0l/m² 0,000klx 0,0min
03:15 9,8°C 86,8% 7,7°C 1017,3hPa 9,8°C 10,4km/h (2Bft) 4,3km/h 232° (SW) 0,0l/m² 0,000klx 0,0min
03:10 9,8°C 86,5% 7,6°C 1017,4hPa 9,8°C 10,4km/h (2Bft) 4,3km/h 235° (SW) 0,0l/m² 0,000klx 0,0min
03:05 9,8°C 86,7% 7,7°C 1017,4hPa 9,8°C 11,2km/h (2Bft) 4,5km/h 245° (SW) 0,0l/m² 0,000klx 0,0min
03:00 9,8°C 87,0% 7,7°C 1017,3hPa 9,8°C 10,4km/h (2Bft) 3,2km/h 250° (W) 0,0l/m² 0,000klx 0,0min
02:55 9,7°C 87,4% 7,7°C 1017,3hPa 9,7°C 10,8km/h (2Bft) 3,8km/h 231° (SW) 0,0l/m² 0,000klx 0,0min
02:50 9,6°C 88,1% 7,8°C 1017,3hPa 9,6°C 8,6km/h (2Bft) 3,7km/h 247° (SW) 0,0l/m² 0,000klx 0,0min
02:45 9,5°C 88,0% 7,6°C 1017,3hPa 9,5°C 9,7km/h (2Bft) 4,3km/h 226° (SW) 0,0l/m² 0,000klx 0,0min
02:40 9,5°C 88,3% 7,7°C 1017,3hPa 9,5°C 10,4km/h (2Bft) 3,8km/h 238° (SW) 0,0l/m² 0,000klx 0,0min
02:35 9,5°C 87,7% 7,5°C 1017,3hPa 9,5°C 8,6km/h (2Bft) 4,5km/h 214° (SW) 0,0l/m² 0,000klx 0,0min
02:30 9,4°C 88,2% 7,5°C 1017,4hPa 9,4°C 12,2km/h (3Bft) 5,2km/h 212° (SW) 0,0l/m² 0,000klx 0,0min
02:25 9,3°C 88,8% 7,5°C 1017,4hPa 9,3°C 12,6km/h (3Bft) 5,6km/h 213° (SW) 0,0l/m² 0,000klx 0,0min
02:20 9,2°C 89,3% 7,5°C 1017,4hPa 9,2°C 10,1km/h (2Bft) 5,2km/h 216° (SW) 0,0l/m² 0,000klx 0,0min
02:15 9,1°C 89,4% 7,5°C 1017,4hPa 9,1°C 11,5km/h (2Bft) 4,6km/h 218° (SW) 0,0l/m² 0,000klx 0,0min
02:10 9,1°C 89,8% 7,5°C 1017,4hPa 9,1°C 9,7km/h (2Bft) 4,6km/h 214° (SW) 0,0l/m² 0,000klx 0,0min
02:05 9,0°C 89,9% 7,4°C 1017,4hPa 9,0°C 10,4km/h (2Bft) 5,0km/h 217° (SW) 0,0l/m² 0,000klx 0,0min
02:00 9,0°C 90,3% 7,5°C 1017,3hPa 9,0°C 9,4km/h (2Bft) 3,9km/h 220° (SW) 0,0l/m² 0,000klx 0,0min
01:55 8,9°C 89,6% 7,3°C 1017,3hPa 8,9°C 8,3km/h (2Bft) 3,9km/h 208° (SW) 0,0l/m² 0,000klx 0,0min
01:50 9,0°C 89,7% 7,4°C 1017,3hPa 9,0°C 6,1km/h (2Bft) 3,0km/h 233° (SW) 0,0l/m² 0,000klx 0,0min
01:45 9,0°C 89,2% 7,3°C 1017,3hPa 9,0°C 7,9km/h (2Bft) 3,7km/h 225° (SW) 0,0l/m² 0,000klx 0,0min
01:40 9,0°C 89,2% 7,3°C 1017,3hPa 9,0°C 9,4km/h (2Bft) 5,1km/h 224° (SW) 0,0l/m² 0,000klx 0,0min
01:35 9,1°C 89,0% 7,4°C 1017,3hPa 9,1°C 8,6km/h (2Bft) 3,5km/h 223° (SW) 0,0l/m² 0,000klx 0,0min
01:30 9,1°C 89,0% 7,4°C 1017,3hPa 9,1°C 7,9km/h (2Bft) 3,3km/h 241° (SW) 0,0l/m² 0,000klx 0,0min
01:25 9,2°C 88,8% 7,4°C 1017,3hPa 9,2°C 7,6km/h (2Bft) 3,5km/h 215° (SW) 0,0l/m² 0,000klx 0,0min
01:20 9,1°C 88,5% 7,3°C 1017,3hPa 9,1°C 13,0km/h (3Bft) 4,8km/h 210° (SW) 0,0l/m² 0,000klx 0,0min
01:15 9,1°C 88,1% 7,2°C 1017,3hPa 9,1°C 7,2km/h (2Bft) 2,8km/h 227° (SW) 0,0l/m² 0,000klx 0,0min
01:10 9,1°C 87,9% 7,2°C 1017,2hPa 9,1°C 9,0km/h (2Bft) 3,6km/h 234° (SW) 0,0l/m² 0,000klx 0,0min
01:05 9,1°C 88,0% 7,2°C 1017,2hPa 9,1°C 6,8km/h (2Bft) 3,3km/h 236° (SW) 0,0l/m² 0,000klx 0,0min
01:00 9,1°C 87,7% 7,2°C 1017,2hPa 9,1°C 8,3km/h (2Bft) 2,8km/h 230° (SW) 0,0l/m² 0,000klx 0,0min
00:55 9,2°C 86,7% 7,1°C 1017,2hPa 9,2°C 7,9km/h (2Bft) 3,2km/h 198° (S) 0,0l/m² 0,000klx 0,0min
00:50 9,3°C 86,1% 7,1°C 1017,2hPa 9,3°C 6,8km/h (2Bft) 3,0km/h 243° (SW) 0,0l/m² 0,000klx 0,0min
00:45 9,3°C 86,1% 7,1°C 1017,2hPa 9,3°C 6,1km/h (2Bft) 2,6km/h 252° (W) 0,0l/m² 0,000klx 0,0min
00:40 9,4°C 85,8% 7,1°C 1017,2hPa 9,4°C 7,9km/h (2Bft) 3,3km/h 218° (SW) 0,0l/m² 0,000klx 0,0min
00:35 9,4°C 85,6% 7,1°C 1017,2hPa 9,4°C 6,1km/h (2Bft) 2,8km/h 248° (W) 0,0l/m² 0,000klx 0,0min
00:30 9,4°C 85,7% 7,1°C 1017,2hPa 9,4°C 7,2km/h (2Bft) 2,8km/h 228° (SW) 0,0l/m² 0,000klx 0,0min
00:25 9,5°C 84,8% 7,1°C 1017,2hPa 9,5°C 6,5km/h (2Bft) 3,3km/h 200° (S) 0,0l/m² 0,000klx 0,0min
00:20 9,6°C 84,2% 7,1°C 1017,1hPa 9,6°C 8,6km/h (2Bft) 2,8km/h 211° (SW) 0,0l/m² 0,000klx 0,0min
00:15 9,7°C 83,3% 7,0°C 1017,1hPa 9,7°C 6,5km/h (2Bft) 3,2km/h 215° (SW) 0,0l/m² 0,000klx 0,0min
00:10 9,8°C 82,4% 6,9°C 1017,1hPa 9,8°C 6,1km/h (2Bft) 2,6km/h 220° (SW) 0,0l/m² 0,000klx 0,0min
00:05 9,9°C 81,8% 6,9°C 1017,0hPa 9,9°C 6,1km/h (2Bft) 2,5km/h 228° (SW) 0,0l/m² 0,000klx 0,0min
00:00 10,0°C 81,1% 6,9°C 1016,9hPa 10,0°C 5,8km/h (1Bft) 2,6km/h 235° (SW) 0,0l/m² 0,000klx 0,0min

Aktuelle Wetterdaten

12.06.2024 23:25 Uhr